ITY7553 LOWW-LIRF
Flight info
| Callsign | ITY7553 |
|---|---|
| Flight time | 1h 12m |
| Altitude | 30000 |
| Route | RUPET DCT GRZ/N0447F400 DCT GIRDA DCT BAXON/N0441F390 DCT UNUMU DCT ETPOK DCT RITEB |
| Aircraft | A332/H-SDE3GHIJ2J3J5M1RVWXY/LB2D1 |
Departure
| Time | 2026-05-05 11:56 |
|---|---|
| Airport | Vienna International Airport (LOWW) |
Arrival
| Time | 2026-05-05 13:08 |
|---|---|
| Airport | Rome–Fiumicino Leonardo da Vinci International Airport (LIRF) |
| Time | Latitude | Longitude | Altitude | Speed | Heading |
|---|---|---|---|---|---|
| 2026-05-05 11:26 | 48.12373 | 16.57024 | 612 ft | 0 kts | 26° |
| 2026-05-05 11:49 | 48.12366 | 16.57019 | 613 ft | 3 kts | 27° |
| 2026-05-05 11:49 | 48.12347 | 16.57003 | 628 ft | 3 kts | 33° |
| 2026-05-05 11:49 | 48.12328 | 16.56983 | 628 ft | 3 kts | 41° |
| 2026-05-05 11:50 | 48.12313 | 16.56959 | 628 ft | 3 kts | 56° |
| 2026-05-05 11:50 | 48.12303 | 16.56931 | 628 ft | 3 kts | 88° |
| 2026-05-05 11:50 | 48.12304 | 16.56913 | 628 ft | 1 kts | 116° |
| 2026-05-05 11:52 | 48.12300 | 16.56928 | 628 ft | 3 kts | 116° |
| 2026-05-05 11:53 | 48.12287 | 16.56966 | 623 ft | 5 kts | 116° |
| 2026-05-05 11:53 | 48.12259 | 16.57050 | 626 ft | 11 kts | 116° |
| 2026-05-05 11:53 | 48.12223 | 16.57160 | 621 ft | 12 kts | 115° |
| 2026-05-05 11:53 | 48.12189 | 16.57264 | 622 ft | 9 kts | 118° |
| 2026-05-05 11:54 | 48.12147 | 16.57318 | 623 ft | 8 kts | 153° |
| 2026-05-05 11:54 | 48.12079 | 16.57353 | 622 ft | 11 kts | 165° |
| 2026-05-05 11:54 | 48.12020 | 16.57409 | 618 ft | 10 kts | 123° |
| 2026-05-05 11:54 | 48.12005 | 16.57510 | 621 ft | 12 kts | 101° |
| 2026-05-05 11:55 | 48.11986 | 16.57635 | 625 ft | 13 kts | 103° |
| 2026-05-05 11:55 | 48.11964 | 16.57770 | 621 ft | 14 kts | 105° |
| 2026-05-05 11:55 | 48.11901 | 16.57851 | 620 ft | 11 kts | 163° |
| 2026-05-05 11:55 | 48.11883 | 16.57859 | 624 ft | 10 kts | 163° |
| 2026-05-05 11:56 | 48.11599 | 16.57979 | 626 ft | 76 kts | 164° |
| 2026-05-05 11:56 | 48.10895 | 16.58275 | 625 ft | 132 kts | 165° |
| 2026-05-05 11:56 | 48.09924 | 16.58670 | 1037 ft | 149 kts | 165° |
| 2026-05-05 11:56 | 48.08970 | 16.59050 | 2024 ft | 136 kts | 168° |
| 2026-05-05 11:57 | 48.08074 | 16.59432 | 2811 ft | 138 kts | 169° |
| 2026-05-05 11:57 | 48.07062 | 16.59835 | 3191 ft | 164 kts | 172° |
| 2026-05-05 11:57 | 48.05850 | 16.59799 | 3504 ft | 187 kts | 196° |
| 2026-05-05 11:57 | 48.04674 | 16.58674 | 3828 ft | 219 kts | 220° |
| 2026-05-05 11:58 | 48.03566 | 16.56941 | 4442 ft | 239 kts | 225° |
| 2026-05-05 11:58 | 48.02442 | 16.55068 | 5409 ft | 244 kts | 226° |
| 2026-05-05 11:58 | 48.01299 | 16.53186 | 6501 ft | 245 kts | 226° |
| 2026-05-05 11:58 | 48.00135 | 16.51293 | 7513 ft | 250 kts | 226° |
| 2026-05-05 11:59 | 47.98949 | 16.49381 | 8642 ft | 251 kts | 226° |
| 2026-05-05 11:59 | 47.97743 | 16.47471 | 9673 ft | 257 kts | 224° |
| 2026-05-05 11:59 | 47.96349 | 16.45721 | 10386 ft | 271 kts | 218° |
| 2026-05-05 11:59 | 47.94778 | 16.43947 | 10799 ft | 295 kts | 216° |
| 2026-05-05 12:00 | 47.93062 | 16.42123 | 11465 ft | 308 kts | 215° |
| 2026-05-05 12:00 | 47.91286 | 16.40305 | 12414 ft | 311 kts | 214° |
| 2026-05-05 12:00 | 47.89476 | 16.38483 | 13308 ft | 316 kts | 215° |
| 2026-05-05 12:00 | 47.87653 | 16.36655 | 14207 ft | 319 kts | 215° |
| 2026-05-05 12:01 | 47.85781 | 16.34774 | 14839 ft | 328 kts | 215° |
| 2026-05-05 12:01 | 47.83869 | 16.32841 | 15452 ft | 338 kts | 215° |
| 2026-05-05 12:01 | 47.81925 | 16.30872 | 16344 ft | 337 kts | 214° |
| 2026-05-05 12:01 | 47.79979 | 16.28898 | 17206 ft | 338 kts | 215° |
| 2026-05-05 12:02 | 47.78059 | 16.26950 | 17996 ft | 342 kts | 215° |
| 2026-05-05 12:02 | 47.76068 | 16.24934 | 18546 ft | 349 kts | 215° |
| 2026-05-05 12:02 | 47.74039 | 16.22882 | 19012 ft | 359 kts | 215° |
| 2026-05-05 12:02 | 47.71965 | 16.20786 | 19727 ft | 360 kts | 216° |
| 2026-05-05 12:03 | 47.69900 | 16.18703 | 20526 ft | 357 kts | 216° |
| 2026-05-05 12:03 | 47.67830 | 16.16613 | 21028 ft | 366 kts | 216° |
| 2026-05-05 12:03 | 47.65709 | 16.14471 | 21510 ft | 372 kts | 216° |
| 2026-05-05 12:03 | 47.63547 | 16.12294 | 22080 ft | 376 kts | 215° |
| 2026-05-05 12:04 | 47.61378 | 16.10111 | 22748 ft | 378 kts | 216° |
| 2026-05-05 12:04 | 47.59205 | 16.07925 | 23448 ft | 379 kts | 216° |
| 2026-05-05 12:04 | 47.57004 | 16.05714 | 23820 ft | 386 kts | 216° |
| 2026-05-05 12:04 | 47.54759 | 16.03464 | 24218 ft | 391 kts | 216° |
| 2026-05-05 12:05 | 47.52503 | 16.01209 | 24813 ft | 391 kts | 217° |
| 2026-05-05 12:05 | 47.50262 | 15.98968 | 25453 ft | 389 kts | 215° |
| 2026-05-05 12:05 | 47.48012 | 15.96721 | 25911 ft | 392 kts | 216° |
| 2026-05-05 12:05 | 47.45723 | 15.94435 | 26214 ft | 399 kts | 215° |
| 2026-05-05 12:06 | 47.43420 | 15.92143 | 26833 ft | 398 kts | 217° |
| 2026-05-05 12:06 | 47.41131 | 15.89869 | 27333 ft | 399 kts | 216° |
| 2026-05-05 12:06 | 47.38815 | 15.87564 | 27670 ft | 405 kts | 217° |
| 2026-05-05 12:06 | 47.36469 | 15.85232 | 28103 ft | 408 kts | 217° |
| 2026-05-05 12:07 | 47.34110 | 15.82890 | 28639 ft | 407 kts | 217° |
| 2026-05-05 12:07 | 47.31753 | 15.80553 | 29040 ft | 411 kts | 216° |
| 2026-05-05 12:07 | 47.29358 | 15.78181 | 29310 ft | 417 kts | 216° |
| 2026-05-05 12:07 | 47.26942 | 15.75788 | 29752 ft | 419 kts | 216° |
| 2026-05-05 12:08 | 47.24522 | 15.73395 | 30196 ft | 420 kts | 216° |
| 2026-05-05 12:08 | 47.22088 | 15.70990 | 30545 ft | 422 kts | 216° |
| 2026-05-05 12:08 | 47.19662 | 15.68596 | 30852 ft | 426 kts | 216° |
| 2026-05-05 12:08 | 47.17234 | 15.66203 | 31257 ft | 426 kts | 216° |
| 2026-05-05 12:09 | 47.14769 | 15.63777 | 31645 ft | 427 kts | 216° |
| 2026-05-05 12:09 | 47.12306 | 15.61358 | 32133 ft | 425 kts | 215° |
| 2026-05-05 12:09 | 47.09848 | 15.58948 | 32643 ft | 424 kts | 215° |
| 2026-05-05 12:09 | 47.07411 | 15.56558 | 33202 ft | 420 kts | 215° |
| 2026-05-05 12:10 | 47.04982 | 15.54177 | 33663 ft | 419 kts | 215° |
| 2026-05-05 12:10 | 47.02558 | 15.51802 | 34025 ft | 419 kts | 215° |
| 2026-05-05 12:10 | 47.00135 | 15.49433 | 34422 ft | 418 kts | 215° |
| 2026-05-05 12:10 | 46.97717 | 15.47072 | 34798 ft | 418 kts | 215° |
| 2026-05-05 12:11 | 46.95295 | 15.44722 | 35076 ft | 419 kts | 214° |
| 2026-05-05 12:11 | 46.92837 | 15.42413 | 35383 ft | 419 kts | 214° |
| 2026-05-05 12:11 | 46.90373 | 15.40148 | 35797 ft | 417 kts | 214° |
| 2026-05-05 12:11 | 46.87913 | 15.37912 | 36117 ft | 417 kts | 214° |
| 2026-05-05 12:12 | 46.85441 | 15.35671 | 36376 ft | 419 kts | 213° |
| 2026-05-05 12:12 | 46.82961 | 15.33423 | 36673 ft | 419 kts | 214° |
| 2026-05-05 12:12 | 46.80490 | 15.31179 | 37069 ft | 417 kts | 214° |
| 2026-05-05 12:12 | 46.78023 | 15.28937 | 37358 ft | 418 kts | 214° |
| 2026-05-05 12:13 | 46.75552 | 15.26690 | 37594 ft | 419 kts | 215° |
| 2026-05-05 12:13 | 46.73080 | 15.24445 | 37996 ft | 417 kts | 215° |
| 2026-05-05 12:13 | 46.70622 | 15.22211 | 38363 ft | 416 kts | 214° |
| 2026-05-05 12:13 | 46.68165 | 15.19978 | 38620 ft | 417 kts | 214° |
| 2026-05-05 12:14 | 46.65695 | 15.17736 | 38782 ft | 418 kts | 214° |
| 2026-05-05 12:14 | 46.63227 | 15.15502 | 39059 ft | 416 kts | 214° |
| 2026-05-05 12:14 | 46.60770 | 15.13281 | 39314 ft | 417 kts | 214° |
| 2026-05-05 12:14 | 46.58306 | 15.11057 | 39496 ft | 418 kts | 214° |
| 2026-05-05 12:15 | 46.55831 | 15.08825 | 39669 ft | 419 kts | 214° |
| 2026-05-05 12:15 | 46.53360 | 15.06595 | 39909 ft | 419 kts | 214° |
| 2026-05-05 12:15 | 46.48354 | 15.02077 | 39967 ft | 429 kts | 214° |
| 2026-05-05 12:16 | 46.43230 | 14.97465 | 39976 ft | 436 kts | 214° |
| 2026-05-05 12:16 | 46.38067 | 14.92842 | 39985 ft | 436 kts | 213° |
| 2026-05-05 12:17 | 46.32923 | 14.88262 | 39993 ft | 433 kts | 214° |
| 2026-05-05 12:17 | 46.27791 | 14.83690 | 40010 ft | 433 kts | 215° |
| 2026-05-05 12:18 | 46.22703 | 14.79161 | 40010 ft | 433 kts | 214° |
| 2026-05-05 12:18 | 46.17569 | 14.74592 | 40020 ft | 435 kts | 214° |
| 2026-05-05 12:19 | 46.12409 | 14.70009 | 40017 ft | 436 kts | 214° |
| 2026-05-05 12:19 | 46.07245 | 14.65442 | 40019 ft | 436 kts | 214° |
| 2026-05-05 12:20 | 46.02080 | 14.60885 | 40011 ft | 436 kts | 214° |
| 2026-05-05 12:20 | 45.96904 | 14.56330 | 40018 ft | 436 kts | 214° |
| 2026-05-05 12:21 | 45.91731 | 14.51786 | 40020 ft | 436 kts | 214° |
| 2026-05-05 12:21 | 45.86553 | 14.47245 | 40024 ft | 436 kts | 214° |
| 2026-05-05 12:22 | 45.81377 | 14.42717 | 40032 ft | 436 kts | 214° |
| 2026-05-05 12:22 | 45.76194 | 14.38197 | 40030 ft | 436 kts | 214° |
| 2026-05-05 12:23 | 45.71011 | 14.33686 | 40038 ft | 436 kts | 214° |
| 2026-05-05 12:23 | 45.65825 | 14.29181 | 40034 ft | 436 kts | 214° |
| 2026-05-05 12:24 | 45.60640 | 14.24686 | 40041 ft | 436 kts | 214° |
| 2026-05-05 12:24 | 45.55449 | 14.20197 | 40044 ft | 436 kts | 214° |
| 2026-05-05 12:25 | 45.50259 | 14.15718 | 40049 ft | 436 kts | 213° |
| 2026-05-05 12:25 | 45.44884 | 14.11685 | 40046 ft | 437 kts | 208° |
| 2026-05-05 12:26 | 45.39397 | 14.08077 | 40051 ft | 437 kts | 207° |
| 2026-05-05 12:26 | 45.33850 | 14.04527 | 40042 ft | 437 kts | 207° |
| 2026-05-05 12:27 | 45.28307 | 14.00988 | 40033 ft | 437 kts | 207° |
| 2026-05-05 12:27 | 45.22752 | 13.97433 | 40042 ft | 438 kts | 207° |
| 2026-05-05 12:28 | 45.18095 | 13.94455 | 40040 ft | 438 kts | 207° |
| 2026-05-05 12:28 | 45.12574 | 13.90930 | 40040 ft | 438 kts | 207° |
| 2026-05-05 12:29 | 45.07007 | 13.87383 | 40035 ft | 440 kts | 207° |
| 2026-05-05 12:29 | 45.01420 | 13.83832 | 40034 ft | 440 kts | 207° |
| 2026-05-05 12:30 | 44.95828 | 13.80285 | 40047 ft | 440 kts | 207° |
| 2026-05-05 12:30 | 44.90233 | 13.76745 | 40045 ft | 441 kts | 207° |
| 2026-05-05 12:31 | 44.84632 | 13.73208 | 40044 ft | 442 kts | 207° |
| 2026-05-05 12:31 | 44.79027 | 13.69675 | 40039 ft | 442 kts | 207° |
| 2026-05-05 12:32 | 44.73411 | 13.66144 | 40032 ft | 442 kts | 207° |
| 2026-05-05 12:32 | 44.67797 | 13.62621 | 40029 ft | 442 kts | 207° |
| 2026-05-05 12:33 | 44.62178 | 13.59103 | 40017 ft | 442 kts | 207° |
| 2026-05-05 12:33 | 44.56562 | 13.55594 | 40012 ft | 442 kts | 207° |
| 2026-05-05 12:34 | 44.50950 | 13.52095 | 40017 ft | 441 kts | 207° |
| 2026-05-05 12:34 | 44.45341 | 13.48604 | 40014 ft | 441 kts | 207° |
| 2026-05-05 12:35 | 44.39780 | 13.45006 | 40015 ft | 439 kts | 211° |
| 2026-05-05 12:35 | 44.34410 | 13.40966 | 40013 ft | 437 kts | 212° |
| 2026-05-05 12:36 | 44.29111 | 13.36840 | 40013 ft | 436 kts | 212° |
| 2026-05-05 12:36 | 44.23798 | 13.32753 | 40014 ft | 436 kts | 212° |
| 2026-05-05 12:37 | 44.18471 | 13.28710 | 40007 ft | 435 kts | 212° |
| 2026-05-05 12:37 | 44.15818 | 13.26707 | 39887 ft | 431 kts | 212° |
| 2026-05-05 12:37 | 44.13200 | 13.24738 | 39656 ft | 424 kts | 212° |
| 2026-05-05 12:38 | 44.10619 | 13.22799 | 39415 ft | 418 kts | 212° |
| 2026-05-05 12:38 | 44.08075 | 13.20886 | 39187 ft | 414 kts | 212° |
| 2026-05-05 12:38 | 44.05542 | 13.18981 | 38944 ft | 414 kts | 212° |
| 2026-05-05 12:38 | 44.03010 | 13.17075 | 38719 ft | 414 kts | 213° |
| 2026-05-05 12:39 | 44.00477 | 13.15170 | 38448 ft | 414 kts | 213° |
| 2026-05-05 12:39 | 43.97940 | 13.13265 | 38171 ft | 414 kts | 212° |
| 2026-05-05 12:39 | 43.95406 | 13.11364 | 37894 ft | 414 kts | 212° |
| 2026-05-05 12:39 | 43.92873 | 13.09467 | 37615 ft | 414 kts | 212° |
| 2026-05-05 12:40 | 43.90340 | 13.07573 | 37366 ft | 411 kts | 212° |
| 2026-05-05 12:40 | 43.87878 | 13.05738 | 37103 ft | 405 kts | 212° |
| 2026-05-05 12:40 | 43.85411 | 13.03899 | 36709 ft | 401 kts | 212° |
| 2026-05-05 12:40 | 43.82928 | 13.02048 | 36328 ft | 398 kts | 212° |
| 2026-05-05 12:41 | 43.80502 | 13.00241 | 35957 ft | 395 kts | 213° |
| 2026-05-05 12:41 | 43.78089 | 12.98445 | 35572 ft | 393 kts | 213° |
| 2026-05-05 12:41 | 43.75715 | 12.96678 | 35153 ft | 392 kts | 213° |
| 2026-05-05 12:41 | 43.73290 | 12.94874 | 34706 ft | 391 kts | 213° |
| 2026-05-05 12:42 | 43.70882 | 12.93084 | 34118 ft | 394 kts | 213° |
| 2026-05-05 12:42 | 43.68490 | 12.91305 | 33455 ft | 397 kts | 213° |
| 2026-05-05 12:42 | 43.66052 | 12.89496 | 32845 ft | 398 kts | 213° |
| 2026-05-05 12:42 | 43.63612 | 12.87689 | 32255 ft | 399 kts | 213° |
| 2026-05-05 12:43 | 43.61158 | 12.85875 | 31608 ft | 400 kts | 212° |
| 2026-05-05 12:43 | 43.58703 | 12.84061 | 30959 ft | 401 kts | 212° |
| 2026-05-05 12:43 | 43.56241 | 12.82245 | 30446 ft | 400 kts | 212° |
| 2026-05-05 12:43 | 43.53797 | 12.80445 | 29993 ft | 397 kts | 212° |
| 2026-05-05 12:44 | 43.51372 | 12.78661 | 29474 ft | 393 kts | 212° |
| 2026-05-05 12:44 | 43.48973 | 12.76898 | 29032 ft | 389 kts | 212° |
| 2026-05-05 12:44 | 43.46602 | 12.75155 | 28541 ft | 385 kts | 212° |
| 2026-05-05 12:44 | 43.44250 | 12.73425 | 28061 ft | 381 kts | 212° |
| 2026-05-05 12:45 | 43.41933 | 12.71693 | 27621 ft | 378 kts | 213° |
| 2026-05-05 12:45 | 43.39673 | 12.69880 | 27174 ft | 374 kts | 214° |
| 2026-05-05 12:45 | 43.37462 | 12.68021 | 26721 ft | 370 kts | 215° |
| 2026-05-05 12:45 | 43.35288 | 12.66158 | 26257 ft | 368 kts | 216° |
| 2026-05-05 12:46 | 43.33128 | 12.64303 | 25813 ft | 365 kts | 215° |
| 2026-05-05 12:46 | 43.30977 | 12.62460 | 25363 ft | 363 kts | 216° |
| 2026-05-05 12:46 | 43.28833 | 12.60633 | 24924 ft | 362 kts | 215° |
| 2026-05-05 12:46 | 43.26696 | 12.58822 | 24481 ft | 360 kts | 215° |
| 2026-05-05 12:47 | 43.24570 | 12.57028 | 24034 ft | 358 kts | 215° |
| 2026-05-05 12:47 | 43.22451 | 12.55245 | 23582 ft | 356 kts | 215° |
| 2026-05-05 12:47 | 43.20346 | 12.53476 | 23105 ft | 354 kts | 215° |
| 2026-05-05 12:47 | 43.18257 | 12.51724 | 22659 ft | 350 kts | 215° |
| 2026-05-05 12:48 | 43.16192 | 12.49992 | 22209 ft | 348 kts | 215° |
| 2026-05-05 12:48 | 43.14132 | 12.48266 | 21780 ft | 346 kts | 215° |
| 2026-05-05 12:48 | 43.12088 | 12.46554 | 21357 ft | 343 kts | 215° |
| 2026-05-05 12:48 | 43.10058 | 12.44856 | 20934 ft | 341 kts | 215° |
| 2026-05-05 12:49 | 43.08041 | 12.43171 | 20506 ft | 338 kts | 215° |
| 2026-05-05 12:49 | 43.06038 | 12.41498 | 20076 ft | 336 kts | 215° |
| 2026-05-05 12:49 | 43.04058 | 12.39844 | 19664 ft | 333 kts | 214° |
| 2026-05-05 12:49 | 43.02082 | 12.38196 | 19238 ft | 330 kts | 214° |
| 2026-05-05 12:50 | 43.00155 | 12.36590 | 18826 ft | 327 kts | 214° |
| 2026-05-05 12:50 | 42.98219 | 12.34976 | 18402 ft | 325 kts | 214° |
| 2026-05-05 12:50 | 42.96294 | 12.33374 | 17939 ft | 322 kts | 214° |
| 2026-05-05 12:50 | 42.94384 | 12.31791 | 17519 ft | 320 kts | 214° |
| 2026-05-05 12:51 | 42.92468 | 12.30252 | 17118 ft | 319 kts | 213° |
| 2026-05-05 12:51 | 42.90531 | 12.28781 | 16702 ft | 319 kts | 211° |
| 2026-05-05 12:51 | 42.88565 | 12.27391 | 16286 ft | 318 kts | 210° |
| 2026-05-05 12:51 | 42.86571 | 12.26096 | 15868 ft | 317 kts | 208° |
| 2026-05-05 12:52 | 42.84557 | 12.24895 | 15457 ft | 315 kts | 206° |
| 2026-05-05 12:52 | 42.82530 | 12.23786 | 15031 ft | 313 kts | 204° |
| 2026-05-05 12:52 | 42.80488 | 12.22766 | 14623 ft | 312 kts | 202° |
| 2026-05-05 12:52 | 42.78433 | 12.21836 | 14224 ft | 311 kts | 201° |
| 2026-05-05 12:53 | 42.76393 | 12.21003 | 13812 ft | 309 kts | 199° |
| 2026-05-05 12:53 | 42.74290 | 12.20235 | 13368 ft | 308 kts | 198° |
| 2026-05-05 12:53 | 42.72238 | 12.19576 | 12972 ft | 306 kts | 196° |
| 2026-05-05 12:53 | 42.70157 | 12.18995 | 12575 ft | 305 kts | 194° |
| 2026-05-05 12:54 | 42.65977 | 12.18081 | 11789 ft | 303 kts | 191° |
| 2026-05-05 12:54 | 42.63885 | 12.17749 | 11384 ft | 302 kts | 189° |
| 2026-05-05 12:54 | 42.61800 | 12.17501 | 10984 ft | 301 kts | 188° |
| 2026-05-05 12:55 | 42.59731 | 12.17338 | 10779 ft | 291 kts | 186° |
| 2026-05-05 12:55 | 42.57754 | 12.17263 | 10682 ft | 278 kts | 186° |
| 2026-05-05 12:55 | 42.55849 | 12.17263 | 10586 ft | 269 kts | 184° |
| 2026-05-05 12:55 | 42.53998 | 12.17324 | 10384 ft | 265 kts | 182° |
| 2026-05-05 12:56 | 42.52151 | 12.17405 | 10050 ft | 266 kts | 183° |
| 2026-05-05 12:56 | 42.50304 | 12.17476 | 9730 ft | 265 kts | 182° |
| 2026-05-05 12:56 | 42.48468 | 12.17540 | 9423 ft | 263 kts | 183° |
| 2026-05-05 12:56 | 42.46650 | 12.17602 | 9141 ft | 260 kts | 182° |
| 2026-05-05 12:57 | 42.44850 | 12.17663 | 8843 ft | 258 kts | 184° |
| 2026-05-05 12:57 | 42.43063 | 12.17729 | 8553 ft | 256 kts | 183° |
| 2026-05-05 12:57 | 42.41285 | 12.17797 | 8260 ft | 255 kts | 184° |
| 2026-05-05 12:57 | 42.39515 | 12.17851 | 7972 ft | 254 kts | 184° |
| 2026-05-05 12:58 | 42.37755 | 12.17904 | 7683 ft | 252 kts | 184° |
| 2026-05-05 12:58 | 42.36009 | 12.17959 | 7398 ft | 250 kts | 183° |
| 2026-05-05 12:58 | 42.34269 | 12.18010 | 7115 ft | 250 kts | 182° |
| 2026-05-05 12:58 | 42.32530 | 12.18060 | 6816 ft | 250 kts | 183° |
| 2026-05-05 12:59 | 42.30789 | 12.18114 | 6554 ft | 249 kts | 182° |
| 2026-05-05 12:59 | 42.29067 | 12.18167 | 6296 ft | 248 kts | 182° |
| 2026-05-05 12:59 | 42.27335 | 12.18219 | 5884 ft | 250 kts | 182° |
| 2026-05-05 13:00 | 42.23892 | 12.18328 | 5286 ft | 244 kts | 181° |
| 2026-05-05 13:00 | 42.22225 | 12.18383 | 5014 ft | 242 kts | 182° |
| 2026-05-05 13:01 | 42.17211 | 12.18542 | 4171 ft | 250 kts | 180° |
| 2026-05-05 13:01 | 42.15471 | 12.18594 | 3859 ft | 248 kts | 181° |
| 2026-05-05 13:01 | 42.13761 | 12.18649 | 3568 ft | 244 kts | 179° |
| 2026-05-05 13:01 | 42.12051 | 12.18706 | 3283 ft | 246 kts | 180° |
| 2026-05-05 13:02 | 42.10343 | 12.18759 | 3019 ft | 242 kts | 180° |
| 2026-05-05 13:02 | 42.08697 | 12.18808 | 2865 ft | 231 kts | 179° |
| 2026-05-05 13:02 | 42.07124 | 12.18858 | 2745 ft | 221 kts | 180° |
| 2026-05-05 13:02 | 42.05627 | 12.18905 | 2653 ft | 211 kts | 180° |
| 2026-05-05 13:03 | 42.04195 | 12.18948 | 2562 ft | 201 kts | 180° |
| 2026-05-05 13:03 | 42.02831 | 12.18991 | 2517 ft | 190 kts | 179° |
| 2026-05-05 13:03 | 42.01564 | 12.19130 | 2500 ft | 175 kts | 171° |
| 2026-05-05 13:03 | 42.00408 | 12.19522 | 2498 ft | 169 kts | 166° |
| 2026-05-05 13:04 | 41.99302 | 12.19994 | 2501 ft | 165 kts | 166° |
| 2026-05-05 13:04 | 41.98212 | 12.20460 | 2499 ft | 164 kts | 166° |
| 2026-05-05 13:04 | 41.97121 | 12.20918 | 2497 ft | 165 kts | 166° |
| 2026-05-05 13:04 | 41.96015 | 12.21375 | 2439 ft | 167 kts | 166° |
| 2026-05-05 13:05 | 41.94909 | 12.21833 | 2220 ft | 166 kts | 166° |
| 2026-05-05 13:05 | 41.93828 | 12.22290 | 1977 ft | 157 kts | 165° |
| 2026-05-05 13:05 | 41.92829 | 12.22709 | 1756 ft | 144 kts | 165° |
| 2026-05-05 13:05 | 41.91927 | 12.23087 | 1557 ft | 132 kts | 164° |
| 2026-05-05 13:06 | 41.91090 | 12.23439 | 1397 ft | 121 kts | 165° |
| 2026-05-05 13:06 | 41.90303 | 12.23769 | 1246 ft | 118 kts | 165° |
| 2026-05-05 13:06 | 41.89525 | 12.24093 | 1101 ft | 116 kts | 165° |
| 2026-05-05 13:06 | 41.88751 | 12.24416 | 916 ft | 116 kts | 165° |
| 2026-05-05 13:07 | 41.87984 | 12.24742 | 789 ft | 117 kts | 162° |
| 2026-05-05 13:07 | 41.87192 | 12.25070 | 639 ft | 120 kts | 161° |
| 2026-05-05 13:07 | 41.86407 | 12.25398 | 431 ft | 118 kts | 161° |
| 2026-05-05 13:07 | 41.85628 | 12.25726 | 266 ft | 117 kts | 161° |
| 2026-05-05 13:08 | 41.84852 | 12.26045 | 124 ft | 116 kts | 161° |
| 2026-05-05 13:08 | 41.84086 | 12.26365 | 27 ft | 112 kts | 161° |
| 2026-05-05 13:08 | 41.83486 | 12.26624 | 17 ft | 63 kts | 161° |
| 2026-05-05 13:08 | 41.83208 | 12.26741 | 14 ft | 35 kts | 163° |
| 2026-05-05 13:09 | 41.82992 | 12.26828 | 16 ft | 30 kts | 165° |
| 2026-05-05 13:09 | 41.82801 | 12.26869 | 17 ft | 26 kts | 178° |
| 2026-05-05 13:09 | 41.82619 | 12.26846 | 14 ft | 27 kts | 194° |
| 2026-05-05 13:09 | 41.82438 | 12.26791 | 15 ft | 27 kts | 188° |
| 2026-05-05 13:10 | 41.82256 | 12.26811 | 15 ft | 27 kts | 165° |
| 2026-05-05 13:10 | 41.82089 | 12.26880 | 14 ft | 23 kts | 163° |
| 2026-05-05 13:10 | 41.81935 | 12.26941 | 15 ft | 23 kts | 165° |
| 2026-05-05 13:10 | 41.81781 | 12.26926 | 14 ft | 23 kts | 192° |
| 2026-05-05 13:11 | 41.81622 | 12.26937 | 14 ft | 24 kts | 165° |
| 2026-05-05 13:11 | 41.81466 | 12.27000 | 14 ft | 23 kts | 163° |
| 2026-05-05 13:11 | 41.81308 | 12.27065 | 14 ft | 24 kts | 162° |
| 2026-05-05 13:11 | 41.81150 | 12.27134 | 15 ft | 24 kts | 162° |
| 2026-05-05 13:12 | 41.80988 | 12.27206 | 16 ft | 25 kts | 161° |
| 2026-05-05 13:12 | 41.80828 | 12.27272 | 16 ft | 18 kts | 164° |
| 2026-05-05 13:12 | 41.80713 | 12.27275 | 16 ft | 17 kts | 199° |
| 2026-05-05 13:12 | 41.80631 | 12.27130 | 16 ft | 24 kts | 249° |
| 2026-05-05 13:13 | 41.80570 | 12.26915 | 17 ft | 26 kts | 250° |
| 2026-05-05 13:13 | 41.80507 | 12.26685 | 19 ft | 27 kts | 249° |
| 2026-05-05 13:13 | 41.80439 | 12.26443 | 20 ft | 27 kts | 250° |
| 2026-05-05 13:13 | 41.80374 | 12.26209 | 19 ft | 28 kts | 249° |
| 2026-05-05 13:14 | 41.80306 | 12.25958 | 18 ft | 29 kts | 250° |
| 2026-05-05 13:14 | 41.80251 | 12.25760 | 18 ft | 23 kts | 250° |
| 2026-05-05 13:14 | 41.80195 | 12.25551 | 18 ft | 25 kts | 249° |
| 2026-05-05 13:14 | 41.80131 | 12.25325 | 18 ft | 27 kts | 249° |
| 2026-05-05 13:15 | 41.80103 | 12.25075 | 18 ft | 28 kts | 275° |
| 2026-05-05 13:15 | 41.80098 | 12.24848 | 18 ft | 18 kts | 249° |
| 2026-05-05 13:15 | 41.80010 | 12.24779 | 18 ft | 9 kts | 211° |
| 2026-05-05 13:15 | 41.79976 | 12.24706 | 18 ft | 11 kts | 249° |
| 2026-05-05 13:16 | 41.79947 | 12.24623 | 18 ft | 3 kts | 221° |
| 2026-05-05 13:16 | 41.79896 | 12.24630 | 18 ft | 12 kts | 161° |
| 2026-05-05 13:16 | 41.79855 | 12.24650 | 18 ft | 1 kts | 160° |
| 2026-05-05 13:16 | 41.79846 | 12.24654 | 18 ft | 1 kts | 159° |
| 2026-05-05 13:17 | 41.79842 | 12.24656 | 18 ft | 0 kts | 159° |